sensor_id;sensor_type;location;lat;lon;timestamp;temperature;humidity
14248;DHT22;7208;49.826;6.004;2022-07-23T20:28:29;19.40;99.90
14248;DHT22;7208;49.826;6.004;2022-07-23T20:30:55;19.10;99.90
14248;DHT22;7208;49.826;6.004;2022-07-23T20:33:22;19.00;99.90
14248;DHT22;7208;49.826;6.004;2022-07-23T20:35:48;18.80;99.90
14248;DHT22;7208;49.826;6.004;2022-07-23T20:38:14;18.70;99.90
14248;DHT22;7208;49.826;6.004;2022-07-23T20:40:41;18.60;99.90
14248;DHT22;7208;49.826;6.004;2022-07-23T20:43:07;18.50;99.90
14248;DHT22;7208;49.826;6.004;2022-07-23T20:45:34;18.40;99.90
14248;DHT22;7208;49.826;6.004;2022-07-23T20:48:00;18.30;99.90
14248;DHT22;7208;49.826;6.004;2022-07-23T20:50:25;18.40;99.90
14248;DHT22;7208;49.826;6.004;2022-07-23T20:52:52;18.30;99.90
14248;DHT22;7208;49.826;6.004;2022-07-23T20:55:17;18.30;99.90
14248;DHT22;7208;49.826;6.004;2022-07-23T20:57:43;18.30;99.90
14248;DHT22;7208;49.826;6.004;2022-07-23T21:00:11;18.20;99.90
14248;DHT22;7208;49.826;6.004;2022-07-23T21:02:38;18.20;99.90
14248;DHT22;7208;49.826;6.004;2022-07-23T21:05:04;18.20;99.90
14248;DHT22;7208;49.826;6.004;2022-07-23T21:07:30;18.10;99.90
14248;DHT22;7208;49.826;6.004;2022-07-23T21:09:55;18.10;99.90
14248;DHT22;7208;49.826;6.004;2022-07-23T21:12:21;18.10;99.90
14248;DHT22;7208;49.826;6.004;2022-07-23T21:14:49;18.10;99.90
14248;DHT22;7208;49.826;6.004;2022-07-23T21:17:14;18.00;99.90
14248;DHT22;7208;49.826;6.004;2022-07-23T21:19:40;17.90;99.90
14248;DHT22;7208;49.826;6.004;2022-07-23T21:22:06;17.90;99.90
14248;DHT22;7208;49.826;6.004;2022-07-23T21:24:33;18.00;99.90
14248;DHT22;7208;49.826;6.004;2022-07-23T21:26:59;17.90;99.90
14248;DHT22;7208;49.826;6.004;2022-07-23T21:29:25;17.80;99.90
14248;DHT22;7208;49.826;6.004;2022-07-23T21:31:51;17.70;99.90
14248;DHT22;7208;49.826;6.004;2022-07-23T21:34:20;17.70;99.90
14248;DHT22;7208;49.826;6.004;2022-07-23T21:36:46;17.60;99.90
14248;DHT22;7208;49.826;6.004;2022-07-23T21:39:11;17.50;99.90
14248;DHT22;7208;49.826;6.004;2022-07-23T21:41:38;17.40;99.90
14248;DHT22;7208;49.826;6.004;2022-07-23T21:44:04;17.40;99.90
14248;DHT22;7208;49.826;6.004;2022-07-23T21:46:29;17.40;99.90
14248;DHT22;7208;49.826;6.004;2022-07-23T21:48:56;17.30;99.90
14248;DHT22;7208;49.826;6.004;2022-07-23T21:51:22;17.20;99.90
14248;DHT22;7208;49.826;6.004;2022-07-23T21:53:48;17.10;99.90
14248;DHT22;7208;49.826;6.004;2022-07-23T21:56:13;17.10;99.90
14248;DHT22;7208;49.826;6.004;2022-07-23T21:58:39;17.10;99.90
14248;DHT22;7208;49.826;6.004;2022-07-23T22:01:05;17.10;99.90
14248;DHT22;7208;49.826;6.004;2022-07-23T22:03:30;17.00;99.90
14248;DHT22;7208;49.826;6.004;2022-07-23T22:05:56;17.00;99.90
14248;DHT22;7208;49.826;6.004;2022-07-23T22:08:22;16.90;99.90
14248;DHT22;7208;49.826;6.004;2022-07-23T22:10:48;16.90;99.90
14248;DHT22;7208;49.826;6.004;2022-07-23T22:13:14;16.90;99.90
14248;DHT22;7208;49.826;6.004;2022-07-23T22:15:40;16.70;99.90
14248;DHT22;7208;49.826;6.004;2022-07-23T22:18:05;16.70;99.90
14248;DHT22;7208;49.826;6.004;2022-07-23T22:20:31;16.60;99.90
14248;DHT22;7208;49.826;6.004;2022-07-23T22:22:56;16.60;99.90
14248;DHT22;7208;49.826;6.004;2022-07-23T22:25:22;16.50;99.90
14248;DHT22;7208;49.826;6.004;2022-07-23T22:27:48;16.40;99.90
14248;DHT22;7208;49.826;6.004;2022-07-23T22:30:16;16.40;99.90
14248;DHT22;7208;49.826;6.004;2022-07-23T22:32:43;16.30;99.90
14248;DHT22;7208;49.826;6.004;2022-07-23T22:35:09;16.30;99.90
14248;DHT22;7208;49.826;6.004;2022-07-23T22:37:35;16.20;99.90
14248;DHT22;7208;49.826;6.004;2022-07-23T22:40:01;16.20;99.90
14248;DHT22;7208;49.826;6.004;2022-07-23T22:42:26;16.20;99.90
14248;DHT22;7208;49.826;6.004;2022-07-23T22:44:52;16.20;99.90
14248;DHT22;7208;49.826;6.004;2022-07-23T22:47:18;16.20;99.90
14248;DHT22;7208;49.826;6.004;2022-07-23T22:49:43;16.10;99.90
14248;DHT22;7208;49.826;6.004;2022-07-23T22:52:09;16.10;99.90
14248;DHT22;7208;49.826;6.004;2022-07-23T22:54:35;16.10;99.90
14248;DHT22;7208;49.826;6.004;2022-07-23T22:57:00;16.10;99.90
14248;DHT22;7208;49.826;6.004;2022-07-23T22:59:26;16.00;99.90
14248;DHT22;7208;49.826;6.004;2022-07-23T23:01:52;16.00;99.90
14248;DHT22;7208;49.826;6.004;2022-07-23T23:04:17;16.00;99.90
14248;DHT22;7208;49.826;6.004;2022-07-23T23:06:43;16.00;99.90
14248;DHT22;7208;49.826;6.004;2022-07-23T23:09:09;15.90;99.90
14248;DHT22;7208;49.826;6.004;2022-07-23T23:11:34;15.80;99.90
14248;DHT22;7208;49.826;6.004;2022-07-23T23:14:00;15.80;99.90
14248;DHT22;7208;49.826;6.004;2022-07-23T23:16:26;15.80;99.90
14248;DHT22;7208;49.826;6.004;2022-07-23T23:18:51;15.80;99.90
14248;DHT22;7208;49.826;6.004;2022-07-23T23:21:17;15.80;99.90
14248;DHT22;7208;49.826;6.004;2022-07-23T23:23:42;15.80;99.90
14248;DHT22;7208;49.826;6.004;2022-07-23T23:26:08;15.80;99.90
14248;DHT22;7208;49.826;6.004;2022-07-23T23:28:36;15.80;99.90
14248;DHT22;7208;49.826;6.004;2022-07-23T23:31:02;15.70;99.90
14248;DHT22;7208;49.826;6.004;2022-07-23T23:33:28;15.70;99.90
14248;DHT22;7208;49.826;6.004;2022-07-23T23:35:53;15.60;99.90
14248;DHT22;7208;49.826;6.004;2022-07-23T23:38:19;15.60;99.90
14248;DHT22;7208;49.826;6.004;2022-07-23T23:40:44;15.50;99.90
14248;DHT22;7208;49.826;6.004;2022-07-23T23:43:10;15.50;99.90
14248;DHT22;7208;49.826;6.004;2022-07-23T23:45:36;15.50;99.90
14248;DHT22;7208;49.826;6.004;2022-07-23T23:48:03;15.40;99.90
14248;DHT22;7208;49.826;6.004;2022-07-23T23:50:29;15.40;99.90
14248;DHT22;7208;49.826;6.004;2022-07-23T23:52:54;15.30;99.90
14248;DHT22;7208;49.826;6.004;2022-07-23T23:55:20;15.30;99.90
14248;DHT22;7208;49.826;6.004;2022-07-23T23:57:45;15.30;99.90
